sensor_id;sensor_type;location;lat;lon;timestamp;temperature;humidity
67196;DHT22;54122;53.538;49.366;2023-05-07T00:02:00;5.10;84.90
67196;DHT22;54122;53.538;49.366;2023-05-07T00:04:27;5.10;84.70
67196;DHT22;54122;53.538;49.366;2023-05-07T00:06:54;5.10;84.40
67196;DHT22;54122;53.538;49.366;2023-05-07T00:09:21;5.00;83.80
67196;DHT22;54122;53.538;49.366;2023-05-07T00:11:47;5.00;83.50
67196;DHT22;54122;53.538;49.366;2023-05-07T00:14:13;5.00;83.20
67196;DHT22;54122;53.538;49.366;2023-05-07T00:16:39;4.90;82.90
67196;DHT22;54122;53.538;49.366;2023-05-07T00:19:06;4.90;82.90
67196;DHT22;54122;53.538;49.366;2023-05-07T00:21:32;4.80;83.10
67196;DHT22;54122;53.538;49.366;2023-05-07T00:23:59;4.70;83.30
67196;DHT22;54122;53.538;49.366;2023-05-07T00:26:25;4.60;83.30
67196;DHT22;54122;53.538;49.366;2023-05-07T00:28:52;4.60;83.30
67196;DHT22;54122;53.538;49.366;2023-05-07T00:31:18;4.50;83.30
67196;DHT22;54122;53.538;49.366;2023-05-07T00:33:44;4.40;83.30
67196;DHT22;54122;53.538;49.366;2023-05-07T00:36:10;4.40;83.50
67196;DHT22;54122;53.538;49.366;2023-05-07T00:38:36;4.40;83.70
67196;DHT22;54122;53.538;49.366;2023-05-07T00:41:02;4.40;83.80
67196;DHT22;54122;53.538;49.366;2023-05-07T00:43:29;4.30;83.70
67196;DHT22;54122;53.538;49.366;2023-05-07T00:45:55;4.30;83.60
67196;DHT22;54122;53.538;49.366;2023-05-07T00:48:21;4.30;83.60
67196;DHT22;54122;53.538;49.366;2023-05-07T00:50:50;4.30;83.50
67196;DHT22;54122;53.538;49.366;2023-05-07T00:53:16;4.30;83.20
67196;DHT22;54122;53.538;49.366;2023-05-07T00:55:43;4.30;83.20
67196;DHT22;54122;53.538;49.366;2023-05-07T00:58:09;4.30;83.00
67196;DHT22;54122;53.538;49.366;2023-05-07T01:00:35;4.30;82.80
67196;DHT22;54122;53.538;49.366;2023-05-07T01:03:02;4.30;82.40
67196;DHT22;54122;53.538;49.366;2023-05-07T01:05:29;4.30;82.50
67196;DHT22;54122;53.538;49.366;2023-05-07T01:07:57;4.20;82.60
67196;DHT22;54122;53.538;49.366;2023-05-07T01:10:24;4.20;82.70
67196;DHT22;54122;53.538;49.366;2023-05-07T01:12:50;4.20;82.70
67196;DHT22;54122;53.538;49.366;2023-05-07T01:15:17;4.20;82.70
67196;DHT22;54122;53.538;49.366;2023-05-07T01:17:44;4.20;82.70
67196;DHT22;54122;53.538;49.366;2023-05-07T01:20:11;4.30;82.40
67196;DHT22;54122;53.538;49.366;2023-05-07T01:22:38;4.30;82.20
67196;DHT22;54122;53.538;49.366;2023-05-07T01:25:06;4.40;82.30
67196;DHT22;54122;53.538;49.366;2023-05-07T01:27:33;4.30;82.30
67196;DHT22;54122;53.538;49.366;2023-05-07T01:30:01;4.40;82.30
67196;DHT22;54122;53.538;49.366;2023-05-07T01:32:40;4.30;82.20
67196;DHT22;54122;53.538;49.366;2023-05-07T01:35:11;4.40;82.10
67196;DHT22;54122;53.538;49.366;2023-05-07T01:37:38;4.40;81.90
67196;DHT22;54122;53.538;49.366;2023-05-07T01:40:06;4.40;81.90
67196;DHT22;54122;53.538;49.366;2023-05-07T01:42:33;4.40;81.80
67196;DHT22;54122;53.538;49.366;2023-05-07T01:44:59;4.40;81.90
67196;DHT22;54122;53.538;49.366;2023-05-07T01:47:26;4.50;81.70
67196;DHT22;54122;53.538;49.366;2023-05-07T01:49:53;4.50;81.50
67196;DHT22;54122;53.538;49.366;2023-05-07T01:52:19;4.60;81.20
67196;DHT22;54122;53.538;49.366;2023-05-07T01:54:46;4.70;81.10
67196;DHT22;54122;53.538;49.366;2023-05-07T01:57:12;5.00;82.40
67196;DHT22;54122;53.538;49.366;2023-05-07T01:59:38;6.10;80.90
67196;DHT22;54122;53.538;49.366;2023-05-07T02:02:04;7.50;75.90
67196;DHT22;54122;53.538;49.366;2023-05-07T02:04:31;8.70;71.10
67196;DHT22;54122;53.538;49.366;2023-05-07T02:06:57;8.70;68.50
67196;DHT22;54122;53.538;49.366;2023-05-07T02:09:23;8.50;69.40
67196;DHT22;54122;53.538;49.366;2023-05-07T02:11:49;8.50;69.60
67196;DHT22;54122;53.538;49.366;2023-05-07T02:14:15;8.80;69.40
67196;DHT22;54122;53.538;49.366;2023-05-07T02:16:42;9.30;68.80
67196;DHT22;54122;53.538;49.366;2023-05-07T02:19:08;10.10;65.90
67196;DHT22;54122;53.538;49.366;2023-05-07T02:21:34;10.90;62.30
67196;DHT22;54122;53.538;49.366;2023-05-07T02:24:02;11.80;59.50
67196;DHT22;54122;53.538;49.366;2023-05-07T02:26:28;12.60;56.20
67196;DHT22;54122;53.538;49.366;2023-05-07T02:28:54;13.30;53.60
67196;DHT22;54122;53.538;49.366;2023-05-07T02:31:20;13.80;51.60
67196;DHT22;54122;53.538;49.366;2023-05-07T02:33:46;14.10;50.00
67196;DHT22;54122;53.538;49.366;2023-05-07T02:36:13;14.60;49.50
67196;DHT22;54122;53.538;49.366;2023-05-07T02:38:39;15.10;47.30
67196;DHT22;54122;53.538;49.366;2023-05-07T02:41:05;15.50;46.00
67196;DHT22;54122;53.538;49.366;2023-05-07T02:43:31;15.80;45.50
67196;DHT22;54122;53.538;49.366;2023-05-07T02:46:05;16.10;44.60
67196;DHT22;54122;53.538;49.366;2023-05-07T02:48:31;16.60;43.20
67196;DHT22;54122;53.538;49.366;2023-05-07T02:50:58;16.80;42.30
67196;DHT22;54122;53.538;49.366;2023-05-07T02:53:25;17.10;41.10
67196;DHT22;54122;53.538;49.366;2023-05-07T02:55:54;17.30;40.60
67196;DHT22;54122;53.538;49.366;2023-05-07T02:58:20;17.70;39.90
67196;DHT22;54122;53.538;49.366;2023-05-07T03:00:47;18.00;38.50
67196;DHT22;54122;53.538;49.366;2023-05-07T03:03:13;18.20;38.70
67196;DHT22;54122;53.538;49.366;2023-05-07T03:05:40;18.50;37.40
67196;DHT22;54122;53.538;49.366;2023-05-07T03:08:07;19.10;36.60
67196;DHT22;54122;53.538;49.366;2023-05-07T03:10:33;19.40;35.30
67196;DHT22;54122;53.538;49.366;2023-05-07T03:13:01;19.50;35.10
67196;DHT22;54122;53.538;49.366;2023-05-07T03:15:27;19.80;34.40
67196;DHT22;54122;53.538;49.366;2023-05-07T03:17:53;20.10;33.80
67196;DHT22;54122;53.538;49.366;2023-05-07T03:20:19;20.30;32.40
67196;DHT22;54122;53.538;49.366;2023-05-07T03:22:45;20.30;32.20
67196;DHT22;54122;53.538;49.366;2023-05-07T03:25:12;20.50;31.50
67196;DHT22;54122;53.538;49.366;2023-05-07T03:27:38;20.60;31.20
67196;DHT22;54122;53.538;49.366;2023-05-07T03:30:05;20.50;31.00
67196;DHT22;54122;53.538;49.366;2023-05-07T03:32:32;20.50;30.60
67196;DHT22;54122;53.538;49.366;2023-05-07T03:34:59;20.40;30.90
67196;DHT22;54122;53.538;49.366;2023-05-07T03:37:25;20.40;30.60
67196;DHT22;54122;53.538;49.366;2023-05-07T03:39:51;20.60;30.00
67196;DHT22;54122;53.538;49.366;2023-05-07T03:42:17;20.30;30.00
67196;DHT22;54122;53.538;49.366;2023-05-07T03:44:44;20.30;30.10
67196;DHT22;54122;53.538;49.366;2023-05-07T03:47:10;20.60;29.80
67196;DHT22;54122;53.538;49.366;2023-05-07T03:49:36;21.00;28.80
67196;DHT22;54122;53.538;49.366;2023-05-07T03:52:02;21.10;28.30
67196;DHT22;54122;53.538;49.366;2023-05-07T03:54:30;21.10;28.10
67196;DHT22;54122;53.538;49.366;2023-05-07T03:56:56;20.80;27.80
67196;DHT22;54122;53.538;49.366;2023-05-07T03:59:23;20.50;27.50
67196;DHT22;54122;53.538;49.366;2023-05-07T04:01:49;20.70;28.10
67196;DHT22;54122;53.538;49.366;2023-05-07T04:04:15;21.10;27.50
67196;DHT22;54122;53.538;49.366;2023-05-07T04:06:42;21.50;27.00
67196;DHT22;54122;53.538;49.366;2023-05-07T04:09:08;21.50;26.50
67196;DHT22;54122;53.538;49.366;2023-05-07T04:11:35;21.40;25.50
67196;DHT22;54122;53.538;49.366;2023-05-07T04:14:01;21.00;26.40
67196;DHT22;54122;53.538;49.366;2023-05-07T04:16:28;21.10;26.40
67196;DHT22;54122;53.538;49.366;2023-05-07T04:18:54;21.40;26.40
67196;DHT22;54122;53.538;49.366;2023-05-07T04:21:21;21.70;26.20
67196;DHT22;54122;53.538;49.366;2023-05-07T04:23:48;22.30;26.10
67196;DHT22;54122;53.538;49.366;2023-05-07T04:26:14;22.60;25.60
67196;DHT22;54122;53.538;49.366;2023-05-07T04:28:41;22.20;25.60
67196;DHT22;54122;53.538;49.366;2023-05-07T04:31:08;20.30;27.00
67196;DHT22;54122;53.538;49.366;2023-05-07T04:33:34;18.60;29.30
67196;DHT22;54122;53.538;49.366;2023-05-07T04:36:04;17.70;30.90
67196;DHT22;54122;53.538;49.366;2023-05-07T04:38:30;17.40;31.50
67196;DHT22;54122;53.538;49.366;2023-05-07T04:41:02;17.40;32.30
67196;DHT22;54122;53.538;49.366;2023-05-07T04:43:28;18.80;30.50
67196;DHT22;54122;53.538;49.366;2023-05-07T04:45:55;20.10;28.40
67196;DHT22;54122;53.538;49.366;2023-05-07T04:48:21;20.70;27.50
67196;DHT22;54122;53.538;49.366;2023-05-07T04:50:51;21.10;26.50
67196;DHT22;54122;53.538;49.366;2023-05-07T04:53:18;21.60;26.10
67196;DHT22;54122;53.538;49.366;2023-05-07T04:55:44;22.00;25.10
67196;DHT22;54122;53.538;49.366;2023-05-07T04:58:13;22.00;24.10
67196;DHT22;54122;53.538;49.366;2023-05-07T05:00:40;22.10;24.20
67196;DHT22;54122;53.538;49.366;2023-05-07T05:03:06;22.10;24.00
67196;DHT22;54122;53.538;49.366;2023-05-07T05:05:33;21.90;23.30
67196;DHT22;54122;53.538;49.366;2023-05-07T05:07:59;21.70;23.70
67196;DHT22;54122;53.538;49.366;2023-05-07T05:10:26;21.60;23.50
67196;DHT22;54122;53.538;49.366;2023-05-07T05:12:52;21.70;24.10
67196;DHT22;54122;53.538;49.366;2023-05-07T05:15:18;22.30;23.50
67196;DHT22;54122;53.538;49.366;2023-05-07T05:17:44;22.80;22.80
67196;DHT22;54122;53.538;49.366;2023-05-07T05:20:10;23.20;22.70
67196;DHT22;54122;53.538;49.366;2023-05-07T05:22:37;23.20;22.30
67196;DHT22;54122;53.538;49.366;2023-05-07T05:25:04;23.00;22.60
67196;DHT22;54122;53.538;49.366;2023-05-07T05:27:30;22.60;22.80
67196;DHT22;54122;53.538;49.366;2023-05-07T05:29:57;22.70;22.90
67196;DHT22;54122;53.538;49.366;2023-05-07T05:32:23;22.80;22.50
67196;DHT22;54122;53.538;49.366;2023-05-07T05:34:49;22.90;22.60
67196;DHT22;54122;53.538;49.366;2023-05-07T05:37:15;23.60;22.00
67196;DHT22;54122;53.538;49.366;2023-05-07T05:39:42;23.90;20.70
67196;DHT22;54122;53.538;49.366;2023-05-07T05:42:08;22.60;21.20
67196;DHT22;54122;53.538;49.366;2023-05-07T05:44:34;21.30;21.90
67196;DHT22;54122;53.538;49.366;2023-05-07T05:47:00;19.60;23.20
67196;DHT22;54122;53.538;49.366;2023-05-07T05:49:27;18.90;24.90
67196;DHT22;54122;53.538;49.366;2023-05-07T05:51:53;19.90;24.60
67196;DHT22;54122;53.538;49.366;2023-05-07T05:54:19;20.90;23.50
67196;DHT22;54122;53.538;49.366;2023-05-07T05:56:46;21.60;22.40
67196;DHT22;54122;53.538;49.366;2023-05-07T05:59:12;21.90;22.20
67196;DHT22;54122;53.538;49.366;2023-05-07T06:01:38;22.40;22.20
67196;DHT22;54122;53.538;49.366;2023-05-07T06:04:05;22.80;21.60
67196;DHT22;54122;53.538;49.366;2023-05-07T06:06:31;22.90;21.30
67196;DHT22;54122;53.538;49.366;2023-05-07T06:08:58;23.20;21.00
67196;DHT22;54122;53.538;49.366;2023-05-07T06:11:24;21.80;21.80
67196;DHT22;54122;53.538;49.366;2023-05-07T06:13:51;21.70;21.80
67196;DHT22;54122;53.538;49.366;2023-05-07T06:16:17;21.90;21.40
67196;DHT22;54122;53.538;49.366;2023-05-07T06:18:43;22.30;21.40
67196;DHT22;54122;53.538;49.366;2023-05-07T06:21:13;23.00;21.00
67196;DHT22;54122;53.538;49.366;2023-05-07T06:23:39;23.40;20.40
67196;DHT22;54122;53.538;49.366;2023-05-07T06:26:06;23.90;19.90
67196;DHT22;54122;53.538;49.366;2023-05-07T06:31:37;23.10;19.30
67196;DHT22;54122;53.538;49.366;2023-05-07T06:34:04;21.10;21.50
67196;DHT22;54122;53.538;49.366;2023-05-07T06:36:31;21.00;22.20
67196;DHT22;54122;53.538;49.366;2023-05-07T06:38:58;21.50;22.20
67196;DHT22;54122;53.538;49.366;2023-05-07T06:41:24;22.30;21.10
67196;DHT22;54122;53.538;49.366;2023-05-07T06:43:51;22.70;20.00
67196;DHT22;54122;53.538;49.366;2023-05-07T06:49:21;22.60;19.80
67196;DHT22;54122;53.538;49.366;2023-05-07T06:51:47;22.50;18.90
67196;DHT22;54122;53.538;49.366;2023-05-07T06:54:13;22.70;18.70
67196;DHT22;54122;53.538;49.366;2023-05-07T06:56:40;22.90;18.50
67196;DHT22;54122;53.538;49.366;2023-05-07T06:59:06;23.10;18.60
67196;DHT22;54122;53.538;49.366;2023-05-07T07:01:32;22.50;16.60
67196;DHT22;54122;53.538;49.366;2023-05-07T07:03:59;22.10;18.20
67196;DHT22;54122;53.538;49.366;2023-05-07T07:06:26;22.40;17.70
67196;DHT22;54122;53.538;49.366;2023-05-07T07:08:52;22.50;17.00
67196;DHT22;54122;53.538;49.366;2023-05-07T07:11:19;22.10;17.50
67196;DHT22;54122;53.538;49.366;2023-05-07T07:13:45;22.10;18.10
67196;DHT22;54122;53.538;49.366;2023-05-07T07:16:11;21.70;17.60
67196;DHT22;54122;53.538;49.366;2023-05-07T07:18:37;19.80;19.00
67196;DHT22;54122;53.538;49.366;2023-05-07T07:21:04;18.30;21.60
67196;DHT22;54122;53.538;49.366;2023-05-07T07:23:30;18.90;22.00
67196;DHT22;54122;53.538;49.366;2023-05-07T07:25:56;19.90;20.80
67196;DHT22;54122;53.538;49.366;2023-05-07T07:28:22;19.80;20.90
67196;DHT22;54122;53.538;49.366;2023-05-07T07:30:49;20.40;20.20
67196;DHT22;54122;53.538;49.366;2023-05-07T07:33:34;21.30;19.70
67196;DHT22;54122;53.538;49.366;2023-05-07T07:36:00;20.00;19.60
67196;DHT22;54122;53.538;49.366;2023-05-07T07:38:26;18.20;21.10
67196;DHT22;54122;53.538;49.366;2023-05-07T07:40:52;18.40;22.10
67196;DHT22;54122;53.538;49.366;2023-05-07T07:43:19;19.60;21.50
67196;DHT22;54122;53.538;49.366;2023-05-07T07:45:45;20.10;20.40
67196;DHT22;54122;53.538;49.366;2023-05-07T07:48:12;20.40;20.10
67196;DHT22;54122;53.538;49.366;2023-05-07T07:50:38;21.00;19.70
67196;DHT22;54122;53.538;49.366;2023-05-07T07:53:04;21.70;19.10
67196;DHT22;54122;53.538;49.366;2023-05-07T07:55:31;22.10;19.00
67196;DHT22;54122;53.538;49.366;2023-05-07T07:57:58;22.70;18.50
67196;DHT22;54122;53.538;49.366;2023-05-07T08:00:24;23.20;18.00
67196;DHT22;54122;53.538;49.366;2023-05-07T08:02:50;23.50;17.80
67196;DHT22;54122;53.538;49.366;2023-05-07T08:05:16;23.30;17.40
67196;DHT22;54122;53.538;49.366;2023-05-07T08:07:43;21.80;18.30
67196;DHT22;54122;53.538;49.366;2023-05-07T08:10:09;20.60;20.00
67196;DHT22;54122;53.538;49.366;2023-05-07T08:12:35;21.40;20.00
67196;DHT22;54122;53.538;49.366;2023-05-07T08:15:03;21.00;19.50
67196;DHT22;54122;53.538;49.366;2023-05-07T08:20:14;19.10;21.60
67196;DHT22;54122;53.538;49.366;2023-05-07T08:22:40;18.50;22.70
67196;DHT22;54122;53.538;49.366;2023-05-07T08:25:06;18.50;22.80
67196;DHT22;54122;53.538;49.366;2023-05-07T08:27:51;19.20;23.30
67196;DHT22;54122;53.538;49.366;2023-05-07T08:30:17;18.80;21.80
67196;DHT22;54122;53.538;49.366;2023-05-07T08:32:44;18.60;22.70
67196;DHT22;54122;53.538;49.366;2023-05-07T08:38:13;18.40;22.60
67196;DHT22;54122;53.538;49.366;2023-05-07T08:40:40;18.90;22.00
67196;DHT22;54122;53.538;49.366;2023-05-07T08:43:12;18.90;21.80
67196;DHT22;54122;53.538;49.366;2023-05-07T08:46:01;18.80;21.90
67196;DHT22;54122;53.538;49.366;2023-05-07T08:48:32;19.20;22.30
67196;DHT22;54122;53.538;49.366;2023-05-07T08:50:59;19.60;21.40
67196;DHT22;54122;53.538;49.366;2023-05-07T08:53:25;20.00;21.30
67196;DHT22;54122;53.538;49.366;2023-05-07T08:55:52;20.00;21.10
67196;DHT22;54122;53.538;49.366;2023-05-07T08:58:19;20.10;21.10
67196;DHT22;54122;53.538;49.366;2023-05-07T09:00:46;20.80;20.50
67196;DHT22;54122;53.538;49.366;2023-05-07T09:03:31;20.90;19.30
67196;DHT22;54122;53.538;49.366;2023-05-07T09:05:57;21.20;19.10
67196;DHT22;54122;53.538;49.366;2023-05-07T09:08:27;21.50;19.00
67196;DHT22;54122;53.538;49.366;2023-05-07T09:10:53;21.40;18.70
67196;DHT22;54122;53.538;49.366;2023-05-07T09:16:12;19.50;20.90
67196;DHT22;54122;53.538;49.366;2023-05-07T09:18:42;18.50;22.70
67196;DHT22;54122;53.538;49.366;2023-05-07T09:21:15;17.70;23.10
67196;DHT22;54122;53.538;49.366;2023-05-07T09:24:19;16.80;24.00
67196;DHT22;54122;53.538;49.366;2023-05-07T09:26:45;15.60;25.70
67196;DHT22;54122;53.538;49.366;2023-05-07T09:29:12;15.30;26.60
67196;DHT22;54122;53.538;49.366;2023-05-07T09:31:57;15.10;27.40
67196;DHT22;54122;53.538;49.366;2023-05-07T09:34:42;15.30;27.20
67196;DHT22;54122;53.538;49.366;2023-05-07T09:37:08;15.20;26.40
67196;DHT22;54122;53.538;49.366;2023-05-07T09:39:46;15.40;26.70
67196;DHT22;54122;53.538;49.366;2023-05-07T09:44:59;16.20;25.70
67196;DHT22;54122;53.538;49.366;2023-05-07T09:47:26;15.80;26.00
67196;DHT22;54122;53.538;49.366;2023-05-07T09:50:15;15.20;25.70
67196;DHT22;54122;53.538;49.366;2023-05-07T09:52:42;14.50;26.50
67196;DHT22;54122;53.538;49.366;2023-05-07T09:55:09;14.00;27.30
67196;DHT22;54122;53.538;49.366;2023-05-07T09:57:38;14.00;27.40
67196;DHT22;54122;53.538;49.366;2023-05-07T10:00:06;14.30;27.20
67196;DHT22;54122;53.538;49.366;2023-05-07T10:02:35;14.70;26.70
67196;DHT22;54122;53.538;49.366;2023-05-07T10:05:03;15.20;26.60
67196;DHT22;54122;53.538;49.366;2023-05-07T10:07:30;15.50;26.10
67196;DHT22;54122;53.538;49.366;2023-05-07T10:09:57;15.40;26.20
67196;DHT22;54122;53.538;49.366;2023-05-07T10:12:43;15.00;25.90
67196;DHT22;54122;53.538;49.366;2023-05-07T10:15:11;14.40;26.50
67196;DHT22;54122;53.538;49.366;2023-05-07T10:17:38;14.10;27.00
67196;DHT22;54122;53.538;49.366;2023-05-07T10:20:06;14.00;27.30
67196;DHT22;54122;53.538;49.366;2023-05-07T10:22:38;13.90;27.80
67196;DHT22;54122;53.538;49.366;2023-05-07T10:25:14;14.10;28.20
67196;DHT22;54122;53.538;49.366;2023-05-07T10:27:41;14.40;27.70
67196;DHT22;54122;53.538;49.366;2023-05-07T10:33:29;14.50;26.90
67196;DHT22;54122;53.538;49.366;2023-05-07T10:35:58;14.10;27.30
67196;DHT22;54122;53.538;49.366;2023-05-07T10:38:27;13.90;27.00
67196;DHT22;54122;53.538;49.366;2023-05-07T10:40:53;13.60;27.10
67196;DHT22;54122;53.538;49.366;2023-05-07T10:43:20;13.70;27.60
67196;DHT22;54122;53.538;49.366;2023-05-07T10:57:44;13.40;27.30
67196;DHT22;54122;53.538;49.366;2023-05-07T11:05:46;14.40;27.80
67196;DHT22;54122;53.538;49.366;2023-05-07T11:08:13;14.70;26.90
67196;DHT22;54122;53.538;49.366;2023-05-07T11:13:16;13.90;27.20
67196;DHT22;54122;53.538;49.366;2023-05-07T11:15:45;13.70;27.40
67196;DHT22;54122;53.538;49.366;2023-05-07T11:18:15;13.60;27.70
67196;DHT22;54122;53.538;49.366;2023-05-07T11:20:46;13.80;28.10
67196;DHT22;54122;53.538;49.366;2023-05-07T11:26:07;14.30;27.10
67196;DHT22;54122;53.538;49.366;2023-05-07T11:31:05;14.60;27.40
67196;DHT22;54122;53.538;49.366;2023-05-07T11:33:32;14.80;27.40
67196;DHT22;54122;53.538;49.366;2023-05-07T11:35:59;15.10;26.40
67196;DHT22;54122;53.538;49.366;2023-05-07T11:38:26;14.90;25.70
67196;DHT22;54122;53.538;49.366;2023-05-07T11:43:54;14.40;26.40
67196;DHT22;54122;53.538;49.366;2023-05-07T11:46:22;14.40;26.70
67196;DHT22;54122;53.538;49.366;2023-05-07T11:48:48;14.50;27.00
67196;DHT22;54122;53.538;49.366;2023-05-07T11:51:51;14.70;26.20
67196;DHT22;54122;53.538;49.366;2023-05-07T11:54:36;14.40;26.10
67196;DHT22;54122;53.538;49.366;2023-05-07T11:57:03;14.30;26.30
67196;DHT22;54122;53.538;49.366;2023-05-07T11:59:29;14.20;26.50
67196;DHT22;54122;53.538;49.366;2023-05-07T12:01:59;14.20;27.90
67196;DHT22;54122;53.538;49.366;2023-05-07T12:04:25;14.10;27.00
67196;DHT22;54122;53.538;49.366;2023-05-07T12:06:54;14.00;27.10
67196;DHT22;54122;53.538;49.366;2023-05-07T12:09:21;14.10;26.80
67196;DHT22;54122;53.538;49.366;2023-05-07T12:14:41;14.50;26.30
67196;DHT22;54122;53.538;49.366;2023-05-07T12:17:08;14.50;26.40
67196;DHT22;54122;53.538;49.366;2023-05-07T12:19:36;14.60;26.80
67196;DHT22;54122;53.538;49.366;2023-05-07T12:24:55;14.60;26.40
67196;DHT22;54122;53.538;49.366;2023-05-07T12:30:10;14.60;26.50
67196;DHT22;54122;53.538;49.366;2023-05-07T12:32:36;14.20;26.00
67196;DHT22;54122;53.538;49.366;2023-05-07T12:35:03;13.80;26.50
67196;DHT22;54122;53.538;49.366;2023-05-07T12:37:29;13.50;26.80
67196;DHT22;54122;53.538;49.366;2023-05-07T12:40:06;13.60;26.90
67196;DHT22;54122;53.538;49.366;2023-05-07T12:42:35;13.70;26.90
67196;DHT22;54122;53.538;49.366;2023-05-07T12:45:12;13.90;26.60
67196;DHT22;54122;53.538;49.366;2023-05-07T12:48:01;13.90;26.60
67196;DHT22;54122;53.538;49.366;2023-05-07T12:53:16;13.80;26.80
67196;DHT22;54122;53.538;49.366;2023-05-07T12:55:50;13.90;27.30
67196;DHT22;54122;53.538;49.366;2023-05-07T12:58:19;14.10;27.20
67196;DHT22;54122;53.538;49.366;2023-05-07T13:00:48;14.20;26.90
67196;DHT22;54122;53.538;49.366;2023-05-07T13:03:33;14.40;27.00
67196;DHT22;54122;53.538;49.366;2023-05-07T13:06:05;14.70;26.80
67196;DHT22;54122;53.538;49.366;2023-05-07T13:08:39;14.80;26.50
67196;DHT22;54122;53.538;49.366;2023-05-07T13:11:14;15.10;26.20
67196;DHT22;54122;53.538;49.366;2023-05-07T13:13:40;14.90;25.60
67196;DHT22;54122;53.538;49.366;2023-05-07T13:16:09;14.60;25.70
67196;DHT22;54122;53.538;49.366;2023-05-07T13:18:37;14.60;26.20
67196;DHT22;54122;53.538;49.366;2023-05-07T13:24:07;14.50;26.40
67196;DHT22;54122;53.538;49.366;2023-05-07T13:26:33;14.50;26.70
67196;DHT22;54122;53.538;49.366;2023-05-07T13:28:59;14.60;26.80
67196;DHT22;54122;53.538;49.366;2023-05-07T13:31:26;14.70;26.60
67196;DHT22;54122;53.538;49.366;2023-05-07T13:33:52;14.80;26.70
67196;DHT22;54122;53.538;49.366;2023-05-07T13:36:18;14.70;26.50
67196;DHT22;54122;53.538;49.366;2023-05-07T13:38:44;14.50;26.60
67196;DHT22;54122;53.538;49.366;2023-05-07T13:41:10;14.10;26.70
67196;DHT22;54122;53.538;49.366;2023-05-07T13:43:38;13.80;27.30
67196;DHT22;54122;53.538;49.366;2023-05-07T13:46:04;13.50;27.80
67196;DHT22;54122;53.538;49.366;2023-05-07T13:48:30;13.30;28.20
67196;DHT22;54122;53.538;49.366;2023-05-07T13:50:57;13.20;28.10
67196;DHT22;54122;53.538;49.366;2023-05-07T13:53:23;13.20;28.20
67196;DHT22;54122;53.538;49.366;2023-05-07T13:55:49;13.30;28.10
67196;DHT22;54122;53.538;49.366;2023-05-07T13:58:33;13.30;27.90
67196;DHT22;54122;53.538;49.366;2023-05-07T14:00:59;13.20;27.70
67196;DHT22;54122;53.538;49.366;2023-05-07T14:06:29;13.00;28.10
67196;DHT22;54122;53.538;49.366;2023-05-07T14:08:55;12.70;28.50
67196;DHT22;54122;53.538;49.366;2023-05-07T14:11:23;12.50;28.80
67196;DHT22;54122;53.538;49.366;2023-05-07T14:13:49;12.50;28.90
67196;DHT22;54122;53.538;49.366;2023-05-07T14:16:16;12.30;28.90
67196;DHT22;54122;53.538;49.366;2023-05-07T14:18:42;12.20;29.10
67196;DHT22;54122;53.538;49.366;2023-05-07T14:21:08;12.20;29.20
67196;DHT22;54122;53.538;49.366;2023-05-07T14:23:54;12.10;29.00
67196;DHT22;54122;53.538;49.366;2023-05-07T14:26:22;12.10;29.40
67196;DHT22;54122;53.538;49.366;2023-05-07T14:28:49;12.00;29.70
67196;DHT22;54122;53.538;49.366;2023-05-07T14:31:15;12.00;29.50
67196;DHT22;54122;53.538;49.366;2023-05-07T14:33:41;11.80;29.40
67196;DHT22;54122;53.538;49.366;2023-05-07T14:36:07;11.60;29.80
67196;DHT22;54122;53.538;49.366;2023-05-07T14:38:34;11.40;30.00
67196;DHT22;54122;53.538;49.366;2023-05-07T14:46:30;11.00;31.00
67196;DHT22;54122;53.538;49.366;2023-05-07T14:48:57;10.90;31.20
67196;DHT22;54122;53.538;49.366;2023-05-07T14:54:26;10.90;31.40
67196;DHT22;54122;53.538;49.366;2023-05-07T14:56:53;10.80;31.50
67196;DHT22;54122;53.538;49.366;2023-05-07T14:59:20;10.70;31.60
67196;DHT22;54122;53.538;49.366;2023-05-07T15:01:47;10.60;31.30
67196;DHT22;54122;53.538;49.366;2023-05-07T15:04:13;10.50;31.70
67196;DHT22;54122;53.538;49.366;2023-05-07T15:06:40;10.50;32.00
67196;DHT22;54122;53.538;49.366;2023-05-07T15:09:06;10.50;32.30
67196;DHT22;54122;53.538;49.366;2023-05-07T15:11:33;10.50;31.90
67196;DHT22;54122;53.538;49.366;2023-05-07T15:14:00;10.50;31.80
67196;DHT22;54122;53.538;49.366;2023-05-07T15:16:44;10.50;31.70
67196;DHT22;54122;53.538;49.366;2023-05-07T15:19:11;10.40;32.00
67196;DHT22;54122;53.538;49.366;2023-05-07T15:21:38;10.40;31.80
67196;DHT22;54122;53.538;49.366;2023-05-07T15:24:04;10.40;32.00
67196;DHT22;54122;53.538;49.366;2023-05-07T15:32:01;10.10;32.00
67196;DHT22;54122;53.538;49.366;2023-05-07T15:34:27;10.10;32.20
67196;DHT22;54122;53.538;49.366;2023-05-07T15:36:54;10.20;32.20
67196;DHT22;54122;53.538;49.366;2023-05-07T15:39:20;10.40;32.20
67196;DHT22;54122;53.538;49.366;2023-05-07T15:41:47;10.50;31.50
67196;DHT22;54122;53.538;49.366;2023-05-07T15:44:13;10.50;31.10
67196;DHT22;54122;53.538;49.366;2023-05-07T15:46:39;10.40;31.20
67196;DHT22;54122;53.538;49.366;2023-05-07T15:49:05;10.40;31.30
67196;DHT22;54122;53.538;49.366;2023-05-07T15:51:34;10.30;31.50
67196;DHT22;54122;53.538;49.366;2023-05-07T15:54:01;10.30;31.70
67196;DHT22;54122;53.538;49.366;2023-05-07T15:56:27;10.30;32.00
67196;DHT22;54122;53.538;49.366;2023-05-07T16:01:56;10.20;32.70
67196;DHT22;54122;53.538;49.366;2023-05-07T16:07:08;9.80;33.60
67196;DHT22;54122;53.538;49.366;2023-05-07T16:09:34;9.60;34.30
67196;DHT22;54122;53.538;49.366;2023-05-07T16:12:00;9.30;34.70
67196;DHT22;54122;53.538;49.366;2023-05-07T16:14:27;9.10;35.20
67196;DHT22;54122;53.538;49.366;2023-05-07T16:16:53;9.00;35.70
67196;DHT22;54122;53.538;49.366;2023-05-07T16:19:19;8.90;36.00
67196;DHT22;54122;53.538;49.366;2023-05-07T16:21:46;8.70;36.10
67196;DHT22;54122;53.538;49.366;2023-05-07T16:24:12;8.70;36.40
67196;DHT22;54122;53.538;49.366;2023-05-07T16:26:38;8.50;36.70
67196;DHT22;54122;53.538;49.366;2023-05-07T16:29:23;8.40;37.10
67196;DHT22;54122;53.538;49.366;2023-05-07T16:32:08;8.30;37.30
67196;DHT22;54122;53.538;49.366;2023-05-07T16:34:34;8.20;37.70
67196;DHT22;54122;53.538;49.366;2023-05-07T16:37:02;8.00;37.90
67196;DHT22;54122;53.538;49.366;2023-05-07T16:39:29;7.90;38.50
67196;DHT22;54122;53.538;49.366;2023-05-07T16:41:56;7.70;39.80
67196;DHT22;54122;53.538;49.366;2023-05-07T16:44:22;7.50;40.30
67196;DHT22;54122;53.538;49.366;2023-05-07T16:46:48;7.30;41.20
67196;DHT22;54122;53.538;49.366;2023-05-07T16:49:14;7.00;41.80
67196;DHT22;54122;53.538;49.366;2023-05-07T16:51:40;6.80;42.60